Time;durP1;ratioP1;P1;durP2;ratioP2;P2;SDS_P1;SDS_P2;PMS_P1;PMS_P2;Temp;Humidity;BMP_temperature;BMP_pressure;BME280_temperature;BME280_humidity;BME280_pressure;Samples;Min_cycle;Max_cycle;Signal;HPM_P1;HPM_P2
2023/02/16 00:01:48;;;;;;;53.40;31.58;;;4.80;99.90;;;;;;5100835;27;20031;-57
2023/02/16 00:04:22;;;;;;;48.25;31.85;;;4.90;99.90;;;;;;5131700;27;20502;-56
2023/02/16 00:06:49;;;;;;;52.30;32.70;;;5.10;99.90;;;;;;5116717;28;20036;-54
2023/02/16 00:09:16;;;;;;;56.33;35.58;;;5.10;99.90;;;;;;5112512;28;20088;-52
2023/02/16 00:14:27;;;;;;;52.20;34.05;;;4.90;99.90;;;;;;5113159;28;20039;-58
2023/02/16 00:16:57;;;;;;;50.50;33.75;;;5.00;99.90;;;;;;5094624;28;20040;-55
2023/02/16 00:19:33;;;;;;;59.38;35.38;;;5.10;99.90;;;;;;5113333;28;20102;-54
2023/02/16 00:22:00;;;;;;;49.72;32.13;;;5.20;99.90;;;;;;5113368;28;20031;-56
2023/02/16 00:24:27;;;;;;;50.03;32.50;;;5.20;99.90;;;;;;5113758;28;20102;-57
2023/02/16 00:26:53;;;;;;;54.50;34.00;;;5.10;99.90;;;;;;5113666;28;20035;-57
2023/02/16 00:29:22;;;;;;;46.28;29.38;;;5.20;99.90;;;;;;5094587;28;20040;-54
2023/02/16 00:31:48;;;;;;;49.17;31.67;;;4.60;99.90;;;;;;5113069;28;20390;-57
2023/02/16 00:34:36;;;;;;;55.00;32.58;;;4.20;99.90;;;;;;5113281;28;20027;-53
2023/02/16 00:37:11;;;;;;;50.50;32.97;;;4.00;99.90;;;;;;5113512;28;20153;-56
2023/02/16 00:39:38;;;;;;;48.95;31.20;;;3.60;99.90;;;;;;5113703;28;20024;-57
2023/02/16 00:42:19;;;;;;;43.55;29.33;;;3.20;99.90;;;;;;5113382;28;20459;-52
2023/02/16 00:44:51;;;;;;;46.78;29.15;;;3.10;99.90;;;;;;5113096;28;20028;-57
2023/02/16 00:47:26;;;;;;;48.42;31.80;;;3.00;99.90;;;;;;5132462;28;20453;-57
2023/02/16 00:49:53;;;;;;;46.63;29.65;;;2.80;99.90;;;;;;5133968;27;20031;-54
2023/02/16 00:52:36;;;;;;;48.25;30.15;;;2.80;99.90;;;;;;5134079;27;20036;-57
2023/02/16 00:55:10;;;;;;;45.42;28.83;;;2.80;99.90;;;;;;5132326;28;20442;-55
2023/02/16 00:57:47;;;;;;;46.30;30.42;;;2.90;99.90;;;;;;5133964;27;20105;-55
2023/02/16 01:00:24;;;;;;;43.80;29.52;;;3.00;99.90;;;;;;5132592;28;20047;-56
2023/02/16 01:02:52;;;;;;;46.17;30.55;;;2.80;99.90;;;;;;5135146;27;20049;-56
2023/02/16 01:05:17;;;;;;;50.33;30.20;;;3.10;99.90;;;;;;5135313;27;20023;-56
2023/02/16 01:13:14;;;;;;;47.38;30.70;;;3.00;99.90;;;;;;5133946;28;20054;-55
2023/02/16 01:15:41;;;;;;;44.85;29.55;;;2.80;99.90;;;;;;5133525;27;20031;-55
2023/02/16 01:18:07;;;;;;;43.05;27.25;;;2.90;99.90;;;;;;5133667;27;20080;-55
2023/02/16 01:20:35;;;;;;;47.65;29.25;;;3.00;99.90;;;;;;5114330;28;20059;-54
2023/02/16 01:23:01;;;;;;;44.78;28.30;;;3.00;99.90;;;;;;5133690;27;20043;-57
2023/02/16 01:25:26;;;;;;;44.10;28.55;;;3.00;99.90;;;;;;5114301;28;20035;-54
2023/02/16 01:27:52;;;;;;;40.42;25.33;;;3.30;99.90;;;;;;5117779;27;20039;-56
2023/02/16 01:30:21;;;;;;;41.60;27.35;;;2.90;99.90;;;;;;5136913;27;20035;-57
2023/02/16 01:32:50;;;;;;;36.45;24.65;;;2.50;99.90;;;;;;5137305;27;20065;-55
2023/02/16 01:35:19;;;;;;;37.20;24.80;;;2.20;99.90;;;;;;5137049;27;20106;-56
2023/02/16 01:37:45;;;;;;;37.13;25.45;;;;;;;;;;5136848;27;20019;-56
2023/02/16 01:40:32;;;;;;;41.03;28.95;;;2.00;99.90;;;;;;5134823;27;20386;-58
2023/02/16 01:43:13;;;;;;;45.17;27.00;;;2.10;99.90;;;;;;5136747;27;20176;-57
2023/02/16 01:45:43;;;;;;;46.30;28.55;;;1.90;99.90;;;;;;5136747;27;20443;-54
2023/02/16 01:48:29;;;;;;;48.28;28.30;;;1.90;99.90;;;;;;5136545;27;20027;-54
2023/02/16 01:51:20;;;;;;;44.05;27.15;;;2.10;99.90;;;;;;5136436;27;20031;-58
2023/02/16 01:54:03;;;;;;;44.60;27.98;;;2.40;99.90;;;;;;5053261;28;20131;-59
2023/02/16 01:56:49;;;;;;;41.88;26.80;;;2.50;99.90;;;;;;5053114;28;20040;-56
2023/02/16 01:59:31;;;;;;;43.17;28.05;;;2.60;99.90;;;;;;5052944;28;20045;-59
2023/02/16 02:01:57;;;;;;;42.88;27.98;;;2.60;99.90;;;;;;5052914;28;20128;-56
2023/02/16 02:07:32;;;;;;;43.58;28.02;;;2.50;99.90;;;;;;5053186;28;20580;-59
2023/02/16 02:10:14;;;;;;;47.78;28.65;;;2.70;99.90;;;;;;5052871;28;20029;-57
2023/02/16 02:12:51;;;;;;;44.53;27.33;;;2.80;99.90;;;;;;5052785;28;20051;-57
2023/02/16 02:15:22;;;;;;;48.95;28.83;;;2.90;99.90;;;;;;5037084;28;20033;-56
2023/02/16 02:17:48;;;;;;;42.75;28.38;;;2.90;99.90;;;;;;5052839;28;20612;-57
2023/02/16 02:23:30;;;;;;;46.75;28.75;;;3.10;99.90;;;;;;5021856;28;20037;-55
2023/02/16 02:23:40;;;;;;;45.08;27.05;;;3.00;99.90;;;;;;5053804;28;20059;-55
2023/02/16 02:26:11;;;;;;;46.70;29.23;;;3.10;99.90;;;;;;5033912;28;20037;-55
2023/02/16 02:29:14;;;;;;;46.35;27.63;;;2.70;99.90;;;;;;5032660;28;20572;-56
2023/02/16 02:31:45;;;;;;;;;;;2.60;99.90;;;;;;5105815;28;20433;-57
2023/02/16 02:34:31;;;;;;;45.93;26.50;;;2.40;99.90;;;;;;5113158;28;19904;-56
2023/02/16 02:37:10;;;;;;;48.80;29.25;;;2.30;99.90;;;;;;5114721;28;20028;-54
2023/02/16 02:39:36;;;;;;;43.88;26.80;;;2.30;99.90;;;;;;5115237;28;20023;-57
2023/02/16 02:42:25;;;;;;;46.03;28.85;;;2.30;99.90;;;;;;5115121;28;20039;-54
2023/02/16 02:45:00;;;;;;;48.50;29.08;;;2.20;99.90;;;;;;5095978;28;20041;-56
2023/02/16 02:47:46;;;;;;;41.00;26.05;;;2.30;99.90;;;;;;5115410;28;20023;-56
2023/02/16 02:50:39;;;;;;;45.05;28.92;;;2.50;99.90;;;;;;5115059;28;20046;-59
2023/02/16 02:53:10;;;;;;;42.25;27.20;;;2.60;99.90;;;;;;5114901;28;20031;-59
2023/02/16 03:01:12;;;;;;;40.92;26.42;;;2.70;99.90;;;;;;5115063;28;20386;-56
2023/02/16 03:03:43;;;;;;;39.88;25.88;;;2.60;99.90;;;;;;5114746;28;20176;-56
2023/02/16 03:06:12;;;;;;;45.42;27.40;;;2.70;99.90;;;;;;5115022;28;20031;-57
2023/02/16 03:08:42;;;;;;;38.22;25.25;;;2.70;99.90;;;;;;5114593;28;20024;-53
2023/02/16 03:14:05;;;;;;;41.33;27.00;;;2.60;99.90;;;;;;5114835;28;20502;-54
2023/02/16 03:16:38;;;;;;;44.30;28.05;;;2.70;99.90;;;;;;5114308;28;20467;-54
2023/02/16 03:30:14;;;;;;;45.10;27.70;;;3.40;99.90;;;;;;5114757;28;20104;-55
2023/02/16 03:32:41;;;;;;;48.15;30.27;;;3.40;99.90;;;;;;5114077;28;20028;-54
2023/02/16 03:35:07;;;;;;;51.42;31.48;;;3.40;99.90;;;;;;5114175;28;20034;-57
2023/02/16 03:37:34;;;;;;;59.20;36.22;;;3.50;99.90;;;;;;5078183;28;20039;-59
2023/02/16 03:42:49;;;;;;;52.40;33.22;;;3.60;99.90;;;;;;5114086;28;20031;-57
2023/02/16 03:45:14;;;;;;;54.50;33.97;;;3.70;99.90;;;;;;5113954;28;20019;-57
2023/02/16 03:47:40;;;;;;;51.42;33.20;;;3.70;99.90;;;;;;5113780;28;20030;-58
2023/02/16 03:50:06;;;;;;;51.03;31.77;;;3.70;99.90;;;;;;5113148;28;20023;-55
2023/02/16 03:52:32;;;;;;;57.83;33.53;;;3.80;99.90;;;;;;5113550;28;20483;-58
2023/02/16 03:54:59;;;;;;;54.40;33.03;;;3.80;99.90;;;;;;5113828;28;20080;-56
2023/02/16 03:57:25;;;;;;;46.20;31.10;;;3.80;99.90;;;;;;5113608;28;20031;-56
2023/02/16 03:59:53;;;;;;;48.92;31.20;;;3.80;99.90;;;;;;5113490;28;20054;-54
2023/02/16 04:02:19;;;;;;;46.10;29.23;;;3.80;99.90;;;;;;5114084;28;20035;-59
2023/02/16 04:04:45;;;;;;;48.65;29.70;;;3.90;99.90;;;;;;5114095;28;20027;-57
2023/02/16 04:07:11;;;;;;;45.75;29.88;;;3.90;99.90;;;;;;5113596;28;20107;-55
2023/02/16 04:09:37;;;;;;;48.40;29.15;;;3.90;99.90;;;;;;5113376;28;20059;-58
2023/02/16 04:12:36;;;;;;;43.92;28.27;;;3.70;99.90;;;;;;5111904;28;20070;-54
2023/02/16 04:14:54;;;;;;;47.17;28.52;;;3.30;99.90;;;;;;5094748;28;20071;-54
2023/02/16 04:17:20;;;;;;;44.80;26.73;;;3.40;99.90;;;;;;5113421;28;20439;-57
2023/02/16 04:19:46;;;;;;;40.45;26.98;;;3.50;99.90;;;;;;5113874;28;20039;-57
2023/02/16 04:22:12;;;;;;;46.80;30.67;;;3.60;99.90;;;;;;5113490;28;20027;-59
2023/02/16 04:24:37;;;;;;;55.67;33.92;;;3.60;99.90;;;;;;5111871;28;20387;-56
2023/02/16 04:27:03;;;;;;;44.38;30.65;;;3.70;99.90;;;;;;5113729;28;20129;-54
2023/02/16 04:29:29;;;;;;;49.85;33.20;;;3.70;99.90;;;;;;5113332;28;20023;-58
2023/02/16 04:31:55;;;;;;;56.22;34.08;;;3.70;99.90;;;;;;5113220;28;20028;-54
2023/02/16 04:34:21;;;;;;;52.63;32.97;;;3.80;99.90;;;;;;5113289;28;20032;-54
2023/02/16 04:36:46;;;;;;;54.22;33.30;;;3.80;99.90;;;;;;5113361;28;20024;-55
2023/02/16 04:39:12;;;;;;;51.10;34.05;;;3.80;99.90;;;;;;5113379;28;20122;-53
2023/02/16 04:41:38;;;;;;;52.00;34.53;;;3.80;99.90;;;;;;5113393;28;20027;-53
2023/02/16 04:44:04;;;;;;;51.10;34.60;;;3.80;99.90;;;;;;5113605;28;20028;-58
2023/02/16 04:46:29;;;;;;;44.10;30.23;;;3.70;99.90;;;;;;5094387;28;20038;-56
2023/02/16 04:48:56;;;;;;;45.30;29.50;;;3.50;99.90;;;;;;5113237;28;20657;-56
2023/02/16 04:51:22;;;;;;;41.75;26.10;;;3.40;99.90;;;;;;5113013;28;20118;-55
2023/02/16 04:53:48;;;;;;;51.53;28.92;;;3.20;99.90;;;;;;5113562;28;20100;-52
2023/02/16 04:56:13;;;;;;;56.88;36.25;;;2.80;99.90;;;;;;5111635;28;20041;-55
2023/02/16 04:58:39;;;;;;;51.38;31.77;;;2.90;99.90;;;;;;5114213;28;20490;-56
2023/02/16 05:01:06;;;;;;;44.15;28.33;;;3.00;99.90;;;;;;5123998;27;20031;-56
2023/02/16 05:03:32;;;;;;;46.15;27.90;;;3.10;99.90;;;;;;5097794;27;20076;-54
2023/02/16 05:05:58;;;;;;;42.60;27.25;;;3.20;99.90;;;;;;5137075;27;20031;-54
2023/02/16 05:08:23;;;;;;;40.25;26.20;;;3.30;99.90;;;;;;5137797;27;20027;-58
2023/02/16 05:14:40;;;;;;;44.78;28.88;;;3.30;99.90;;;;;;5118683;27;20126;-57
2023/02/16 05:16:23;;;;;;;47.63;30.35;;;3.30;99.90;;;;;;5137327;27;20390;-55
2023/02/16 05:18:49;;;;;;;49.92;33.92;;;2.90;99.90;;;;;;5137298;27;20064;-54
2023/02/16 05:21:30;;;;;;;68.72;41.80;;;2.70;99.90;;;;;;5137625;27;20482;-54
2023/02/16 05:23:57;;;;;;;57.60;38.15;;;2.80;99.90;;;;;;5120571;27;20505;-59
2023/02/16 05:26:23;;;;;;;56.55;36.80;;;2.50;99.90;;;;;;5138297;27;20027;-56
2023/02/16 05:28:48;;;;;;;62.20;39.90;;;2.70;99.90;;;;;;5139797;27;20026;-54
2023/02/16 05:31:14;;;;;;;65.93;41.50;;;2.60;99.90;;;;;;5137792;27;20059;-56
2023/02/16 05:33:40;;;;;;;71.40;46.20;;;2.50;99.90;;;;;;5138956;27;20038;-55
2023/02/16 05:36:06;;;;;;;64.07;42.78;;;2.70;99.90;;;;;;5120955;27;20092;-55
2023/02/16 05:38:31;;;;;;;60.60;40.55;;;2.90;99.90;;;;;;5120953;27;20039;-56
2023/02/16 05:40:58;;;;;;;88.40;47.85;;;3.00;99.90;;;;;;5138458;27;20094;-55
2023/02/16 05:43:24;;;;;;;77.22;44.55;;;2.80;99.90;;;;;;5133435;27;20443;-57
2023/02/16 05:45:50;;;;;;;63.88;40.38;;;3.00;99.90;;;;;;5137251;27;20118;-58
2023/02/16 05:48:16;;;;;;;64.97;38.67;;;3.10;99.90;;;;;;5136856;27;20023;-56
2023/02/16 05:50:41;;;;;;;86.50;46.15;;;3.20;99.90;;;;;;5136709;27;20390;-55
2023/02/16 05:53:07;;;;;;;137.07;62.78;;;3.20;99.90;;;;;;5136833;27;20055;-56
2023/02/16 05:55:33;;;;;;;128.40;62.22;;;3.40;99.90;;;;;;5136689;27;20046;-56
2023/02/16 05:57:59;;;;;;;124.90;65.45;;;3.40;99.90;;;;;;5136696;27;20046;-56
2023/02/16 06:00:25;;;;;;;76.00;45.50;;;3.40;99.90;;;;;;5136293;27;20100;-57
2023/02/16 06:02:51;;;;;;;75.80;46.15;;;3.60;99.90;;;;;;5134880;27;20039;-54
2023/02/16 06:05:16;;;;;;;69.50;42.75;;;3.70;99.90;;;;;;5136413;27;20482;-53
2023/02/16 06:07:42;;;;;;;70.82;42.30;;;3.80;99.90;;;;;;5117335;27;20035;-60
2023/02/16 06:10:08;;;;;;;72.47;45.83;;;3.70;99.90;;;;;;5136223;27;20027;-54
2023/02/16 06:12:34;;;;;;;129.75;65.40;;;3.80;99.90;;;;;;5109357;27;20396;-54
2023/02/16 06:15:00;;;;;;;234.65;105.18;;;3.90;99.90;;;;;;5125483;27;20023;-55
2023/02/16 06:17:27;;;;;;;322.15;139.68;;;5.40;99.90;;;;;;5126190;27;20103;-55
2023/02/16 06:19:53;;;;;;;177.65;87.40;;;7.00;99.90;;;;;;5126834;27;20035;-55
2023/02/16 06:22:19;;;;;;;121.97;65.72;;;;;;;;;;5126808;27;20538;-55
2023/02/16 06:24:45;;;;;;;90.72;54.17;;;10.00;99.90;;;;;;5131608;27;20501;-55
2023/02/16 06:27:11;;;;;;;65.43;42.17;;;;;;;;;;5133631;27;20015;-56
2023/02/16 06:29:37;;;;;;;58.97;34.35;;;9.50;99.90;;;;;;5134864;27;20023;-54
2023/02/16 06:32:03;;;;;;;62.38;38.40;;;8.90;99.90;;;;;;5134106;27;20080;-57
2023/02/16 06:34:28;;;;;;;56.78;34.40;;;8.50;99.90;;;;;;5133987;27;20030;-58
2023/02/16 06:36:54;;;;;;;58.78;34.45;;;8.80;99.90;;;;;;5133320;27;20023;-55
2023/02/16 06:39:20;;;;;;;54.85;36.45;;;11.20;99.90;;;;;;5098013;27;20043;-56
2023/02/16 06:41:45;;;;;;;74.70;51.63;;;11.50;99.90;;;;;;5135513;27;20466;-56
2023/02/16 06:44:14;;;;;;;68.53;51.88;;;12.00;99.00;;;;;;5135779;27;20382;-55
2023/02/16 06:46:40;;;;;;;66.47;48.90;;;;;;;;;;5135346;27;20592;-55
2023/02/16 06:49:06;;;;;;;54.40;38.08;;;15.70;99.90;;;;;;5135246;27;20035;-55
2023/02/16 06:51:32;;;;;;;43.25;33.10;;;;;;;;;;5135489;27;20035;-55
2023/02/16 06:53:58;;;;;;;45.25;31.25;;;;;;;;;;5135510;27;20027;-56
2023/02/16 06:56:25;;;;;;;36.28;27.92;;;;;;;;;;5135594;27;20031;-55
2023/02/16 06:58:51;;;;;;;38.63;29.55;;;;;;;;;;5135155;27;20023;-56
2023/02/16 07:01:21;;;;;;;43.50;34.22;;;;;;;;;;5135508;27;20043;-56
2023/02/16 07:03:48;;;;;;;45.60;33.67;;;;;;;;;;5135785;27;20034;-56
2023/02/16 07:06:14;;;;;;;47.97;35.70;;;;;;;;;;5135195;27;20019;-55
2023/02/16 07:08:40;;;;;;;50.55;38.38;;;20.40;99.90;;;;;;5134717;27;20059;-56
2023/02/16 07:11:06;;;;;;;53.35;38.97;;;;;;;;;;5135124;27;20442;-56
2023/02/16 07:13:35;;;;;;;41.15;34.65;;;20.90;84.60;;;;;;5115434;27;20035;-55
2023/02/16 07:16:01;;;;;;;46.60;32.83;;;;;;;;;;5135384;27;20424;-56
2023/02/16 07:18:27;;;;;;;52.83;38.38;;;20.50;99.90;;;;;;5134817;27;20024;-55
2023/02/16 07:20:53;;;;;;;48.08;33.60;;;20.60;78.00;;;;;;5135137;27;20106;-56
2023/02/16 07:23:20;;;;;;;42.28;31.58;;;21.50;77.90;;;;;;5134698;27;20030;-56
2023/02/16 07:25:46;;;;;;;40.75;30.40;;;;;;;;;;5116167;27;20091;-56
2023/02/16 07:28:12;;;;;;;46.30;35.42;;;;;;;;;;5115757;27;20535;-56
2023/02/16 07:30:39;;;;;;;51.08;39.78;;;;;;;;;;5134306;27;20752;-56
2023/02/16 07:33:05;;;;;;;48.83;37.25;;;22.50;75.70;;;;;;5134049;27;20460;-56
2023/02/16 07:35:32;;;;;;;46.95;36.28;;;;;;;;;;5133626;27;20118;-56
2023/02/16 07:37:58;;;;;;;45.65;35.92;;;;;;;;;;5134775;27;20094;-53
2023/02/16 07:40:24;;;;;;;47.08;35.88;;;;;;;;;;5134833;27;20019;-53
2023/02/16 07:42:50;;;;;;;45.78;36.17;;;23.00;73.10;;;;;;5134442;27;20463;-53
2023/02/16 07:45:15;;;;;;;52.05;39.40;;;22.90;73.80;;;;;;5133961;27;20027;-54
2023/02/16 07:47:41;;;;;;;49.67;39.05;;;22.80;73.70;;;;;;5132435;27;20064;-53
2023/02/16 07:50:07;;;;;;;50.35;37.72;;;23.00;73.80;;;;;;5134001;27;20027;-54
2023/02/16 07:52:33;;;;;;;48.42;37.25;;;23.30;78.90;;;;;;5114108;27;20043;-53
2023/02/16 07:54:59;;;;;;;62.17;49.15;;;;;;;;;;5133935;27;20029;-54
2023/02/16 07:57:27;;;;;;;71.43;55.72;;;23.70;72.00;;;;;;5134763;27;20094;-54
2023/02/16 07:59:53;;;;;;;86.75;66.72;;;;;;;;;;5134134;27;20047;-54
2023/02/16 08:02:26;;;;;;;73.80;59.42;;;23.90;80.80;;;;;;5115156;27;20085;-54
2023/02/16 08:04:52;;;;;;;83.57;63.22;;;;;;;;;;5133498;27;20019;-54
2023/02/16 08:07:18;;;;;;;79.45;61.20;;;;;;;;;;5134251;27;20367;-55
2023/02/16 08:09:44;;;;;;;85.25;61.30;;;;;;;;;;5132898;27;20015;-55
2023/02/16 08:12:12;;;;;;;69.88;54.38;;;24.80;70.20;;;;;;5134058;27;20088;-55
2023/02/16 08:14:38;;;;;;;66.78;54.92;;;;;;;;;;5133968;28;20019;-55
2023/02/16 08:17:05;;;;;;;84.25;60.67;;;24.60;70.10;;;;;;5134372;28;20023;-55
2023/02/16 08:19:31;;;;;;;81.57;60.35;;;24.80;72.20;;;;;;5134016;28;20024;-55
2023/02/16 08:21:58;;;;;;;85.13;60.78;;;24.40;70.10;;;;;;5133995;28;20392;-55
2023/02/16 08:24:24;;;;;;;68.20;52.40;;;;;;;;;;5133915;28;20078;-55
2023/02/16 08:26:52;;;;;;;60.10;44.78;;;;;;;;;;5134404;28;20085;-55
2023/02/16 08:29:19;;;;;;;56.55;43.58;;;;;;;;;;5133909;27;20458;-55
2023/02/16 08:31:46;;;;;;;62.25;46.15;;;;;;;;;;5133858;28;20074;-51
2023/02/16 08:34:14;;;;;;;80.43;53.92;;;24.90;82.30;;;;;;5134366;27;20046;-54
2023/02/16 08:36:43;;;;;;;59.80;48.95;;;24.70;69.40;;;;;;5130789;27;20027;-52
2023/02/16 08:39:13;;;;;;;55.10;45.53;;;24.30;70.00;;;;;;5117643;28;20059;-56
2023/02/16 08:41:40;;;;;;;55.03;44.58;;;24.40;68.90;;;;;;5117525;28;20081;-56
2023/02/16 08:44:07;;;;;;;57.03;44.70;;;;;;;;;;5117712;28;20036;-55
2023/02/16 08:46:36;;;;;;;58.55;44.78;;;24.40;94.00;;;;;;5126756;27;20019;-56
2023/02/16 08:49:02;;;;;;;55.63;45.25;;;24.60;69.00;;;;;;5126319;27;20365;-56
2023/02/16 08:51:30;;;;;;;54.70;45.88;;;;;;;;;;5120065;27;20035;-56
2023/02/16 08:53:58;;;;;;;61.10;47.45;;;24.60;68.00;;;;;;5117406;28;20023;-56
2023/02/16 08:56:25;;;;;;;72.00;52.42;;;24.60;68.90;;;;;;5117124;28;20375;-55
2023/02/16 08:58:51;;;;;;;70.97;56.05;;;;;;;;;;5117228;28;20043;-55
2023/02/16 09:01:17;;;;;;;74.38;58.30;;;24.80;74.20;;;;;;5117013;28;20031;-56
2023/02/16 09:03:45;;;;;;;77.32;58.67;;;24.70;69.50;;;;;;5117030;28;20031;-55
2023/02/16 09:06:12;;;;;;;72.00;59.00;;;;;;;;;;5117105;28;20031;-55
2023/02/16 09:08:39;;;;;;;74.32;58.28;;;25.10;69.90;;;;;;5131550;27;20042;-56
2023/02/16 09:11:13;;;;;;;75.60;59.60;;;25.00;69.90;;;;;;5137257;27;20103;-55
2023/02/16 09:13:43;;;;;;;91.78;74.57;;;24.70;73.00;;;;;;5118237;27;20500;-55
2023/02/16 09:16:17;;;;;;;80.82;67.45;;;24.70;69.90;;;;;;5118986;27;20096;-55
2023/02/16 09:18:44;;;;;;;87.47;71.25;;;24.70;68.80;;;;;;5136882;27;20031;-55
2023/02/16 09:21:19;;;;;;;86.80;67.40;;;24.60;68.90;;;;;;5121212;27;20036;-55
2023/02/16 09:23:47;;;;;;;90.47;72.40;;;24.30;68.40;;;;;;5118864;27;20028;-55
2023/02/16 09:26:19;;;;;;;89.82;72.82;;;25.00;68.30;;;;;;5136254;27;20035;-55
2023/02/16 09:28:46;;;;;;;97.88;77.45;;;24.80;68.20;;;;;;5131522;27;20042;-55
2023/02/16 09:31:16;;;;;;;108.03;78.55;;;24.80;68.30;;;;;;5116571;28;20035;-55
2023/02/16 09:33:43;;;;;;;98.93;79.05;;;25.00;73.90;;;;;;5073476;28;20086;-55
2023/02/16 09:36:10;;;;;;;97.85;79.85;;;24.80;87.60;;;;;;5073627;28;20076;-55
2023/02/16 09:38:41;;;;;;;118.22;89.28;;;25.10;85.60;;;;;;5073371;28;20508;-55
2023/02/16 09:41:14;;;;;;;99.32;80.13;;;25.10;70.10;;;;;;5073426;28;20143;-55
2023/02/16 09:43:48;;;;;;;101.72;79.60;;;25.00;70.00;;;;;;5070628;28;20487;-55
2023/02/16 09:46:18;;;;;;;105.85;80.18;;;24.90;79.70;;;;;;5002745;28;20037;-55
2023/02/16 09:48:48;;;;;;;101.13;81.47;;;24.30;70.60;;;;;;5052934;28;20476;-55
2023/02/16 09:51:43;;;;;;;100.72;76.75;;;24.50;91.70;;;;;;5053099;28;20069;-55
2023/02/16 09:54:39;;;;;;;97.18;76.50;;;24.80;90.10;;;;;;5052036;28;20041;-55
2023/02/16 09:57:19;;;;;;;105.78;84.80;;;24.80;82.50;;;;;;5054078;28;20374;-55
2023/02/16 09:59:55;;;;;;;114.50;84.65;;;;;;;;;;5093374;28;20515;-55
2023/02/16 10:02:24;;;;;;;102.65;81.72;;;;;;;;;;5093331;28;20031;-55
2023/02/16 10:05:01;;;;;;;104.35;84.55;;;24.60;93.80;;;;;;5093488;28;20032;-55
2023/02/16 10:07:44;;;;;;;100.70;82.13;;;24.50;80.00;;;;;;5093058;28;20415;-55
2023/02/16 10:10:13;;;;;;;103.00;85.88;;;;;;;;;;5093274;28;20067;-55
2023/02/16 10:12:47;;;;;;;100.35;82.25;;;24.20;85.70;;;;;;5092563;28;20127;-55
2023/02/16 10:15:18;;;;;;;103.68;83.30;;;24.40;89.30;;;;;;5092519;28;20044;-55
2023/02/16 10:17:45;;;;;;;94.60;78.30;;;;;;;;;;5123946;27;20038;-55
2023/02/16 10:20:15;;;;;;;92.75;76.47;;;;;;;;;;5136031;27;20035;-55
2023/02/16 10:23:04;;;;;;;88.32;73.68;;;;;;;;;;5136102;27;20382;-56
2023/02/16 10:25:48;;;;;;;84.63;70.82;;;;;;;;;;5072606;28;20538;-56
2023/02/16 10:28:26;;;;;;;95.90;77.35;;;;;;;;;;5072530;28;20487;-55
2023/02/16 10:31:09;;;;;;;92.43;76.03;;;24.50;69.60;;;;;;5071887;28;20408;-55
2023/02/16 10:33:45;;;;;;;94.78;78.50;;;;;;;;;;5071335;28;20036;-56
2023/02/16 10:36:28;;;;;;;90.97;77.60;;;;;;;;;;5072611;28;20126;-55
2023/02/16 10:39:07;;;;;;;95.80;79.75;;;;;;;;;;5072509;28;20490;-55
2023/02/16 10:41:38;;;;;;;100.80;82.13;;;;;;;;;;5071924;28;20039;-56
2023/02/16 10:44:12;;;;;;;98.20;77.73;;;;;;;;;;5071449;28;20048;-55
2023/02/16 10:46:43;;;;;;;91.60;76.72;;;25.60;70.10;;;;;;5071258;28;20118;-55
2023/02/16 10:49:14;;;;;;;94.78;79.18;;;25.40;70.50;;;;;;5063418;28;20126;-55
2023/02/16 10:51:43;;;;;;;114.35;77.70;;;25.60;70.30;;;;;;5071979;28;20032;-54
2023/02/16 10:54:16;;;;;;;93.00;76.90;;;25.50;70.00;;;;;;5072346;28;20043;-56
2023/02/16 10:56:53;;;;;;;91.50;77.40;;;25.50;70.00;;;;;;5071628;28;20044;-57
2023/02/16 10:59:39;;;;;;;94.53;74.60;;;25.10;70.60;;;;;;5071147;28;20127;-57
2023/02/16 11:02:24;;;;;;;94.38;78.07;;;24.80;70.80;;;;;;5075050;27;20066;-56
2023/02/16 11:04:51;;;;;;;98.05;77.57;;;24.30;70.90;;;;;;5134264;27;20027;-54
2023/02/16 11:07:20;;;;;;;89.18;72.63;;;24.40;70.50;;;;;;5134199;27;20364;-54
2023/02/16 11:09:54;;;;;;;72.30;61.50;;;24.40;70.20;;;;;;5133980;27;20038;-54
2023/02/16 11:12:31;;;;;;;94.53;77.22;;;24.60;68.70;;;;;;5113819;27;20047;-55
2023/02/16 11:15:02;;;;;;;99.55;79.30;;;;;;;;;;5131599;27;20039;-55
2023/02/16 11:17:28;;;;;;;97.57;78.65;;;;;;;;;;5133909;27;20038;-55
2023/02/16 11:19:59;;;;;;;97.53;81.68;;;24.70;85.10;;;;;;5133879;27;20031;-55
2023/02/16 11:22:33;;;;;;;105.90;84.00;;;24.50;69.80;;;;;;5133930;27;20092;-55
2023/02/16 11:25:21;;;;;;;100.72;83.10;;;;;;;;;;5133596;27;20462;-55
2023/02/16 11:28:07;;;;;;;100.07;81.65;;;24.50;93.40;;;;;;5133733;27;20035;-55
2023/02/16 11:30:41;;;;;;;104.63;84.07;;;23.70;79.50;;;;;;5133826;27;20043;-55
2023/02/16 11:33:22;;;;;;;101.55;81.85;;;;;;;;;;5133620;27;20046;-55
2023/02/16 11:35:48;;;;;;;91.53;74.27;;;23.60;69.90;;;;;;5133635;27;20027;-55
2023/02/16 11:38:34;;;;;;;97.28;69.88;;;24.10;82.00;;;;;;5115857;27;20047;-55
2023/02/16 11:41:03;;;;;;;84.72;69.38;;;22.90;71.60;;;;;;5134507;27;20028;-55
2023/02/16 11:43:33;;;;;;;79.13;68.05;;;23.20;71.50;;;;;;5134695;27;20474;-55
2023/02/16 11:46:04;;;;;;;79.15;60.17;;;23.40;71.30;;;;;;5134637;27;20027;-55
2023/02/16 11:48:32;;;;;;;75.15;62.03;;;23.40;70.80;;;;;;5134789;27;20483;-55
2023/02/16 11:51:02;;;;;;;77.57;63.83;;;22.70;71.50;;;;;;5133896;27;20138;-55
2023/02/16 11:53:34;;;;;;;79.07;61.00;;;22.40;72.30;;;;;;5134578;27;20027;-56
2023/02/16 11:56:22;;;;;;;80.47;64.13;;;23.20;72.30;;;;;;5134539;27;20478;-55
2023/02/16 11:59:11;;;;;;;74.57;58.42;;;23.20;72.20;;;;;;5134113;27;20027;-55
2023/02/16 12:02:16;;;;;;;71.88;58.45;;;23.00;84.20;;;;;;5070985;28;20520;-55
2023/02/16 12:04:44;;;;;;;74.60;58.13;;;22.50;73.20;;;;;;5070793;28;20103;-55
2023/02/16 12:07:21;;;;;;;74.32;57.70;;;22.30;73.40;;;;;;5054099;28;20127;-55
2023/02/16 12:09:50;;;;;;;63.35;51.33;;;22.00;73.10;;;;;;5070008;28;20024;-55
2023/02/16 12:12:47;;;;;;;59.65;45.40;;;22.40;73.10;;;;;;5070792;28;20460;-55
2023/02/16 12:15:22;;;;;;;61.45;46.45;;;22.20;72.50;;;;;;5006123;28;20049;-55
2023/02/16 12:17:54;;;;;;;63.72;51.03;;;22.50;72.90;;;;;;5011149;28;20049;-56
2023/02/16 12:20:40;;;;;;;74.50;54.55;;;22.40;73.20;;;;;;5011066;28;20045;-56
2023/02/16 12:23:34;;;;;;;73.30;57.35;;;22.50;72.40;;;;;;5011178;28;20065;-55
2023/02/16 12:26:32;;;;;;;67.93;54.05;;;21.90;72.20;;;;;;5011180;28;20046;-56
2023/02/16 12:29:21;;;;;;;67.78;52.72;;;21.80;72.90;;;;;;5011123;28;20401;-56
2023/02/16 12:31:53;;;;;;;59.38;45.15;;;21.70;73.10;;;;;;5010883;28;20505;-56
2023/02/16 12:34:32;;;;;;;69.43;54.03;;;22.00;73.70;;;;;;5011084;28;20077;-56
2023/02/16 12:37:08;;;;;;;56.80;42.88;;;21.80;73.70;;;;;;5011042;28;20082;-56
2023/02/16 12:39:48;;;;;;;54.60;42.13;;;21.40;73.80;;;;;;5045362;28;20037;-56
2023/02/16 12:42:17;;;;;;;52.25;43.15;;;21.70;74.40;;;;;;5033910;28;20041;-55
2023/02/16 12:44:49;;;;;;;56.80;40.67;;;21.80;73.20;;;;;;5047595;28;20116;-56
2023/02/16 12:47:46;;;;;;;53.15;42.00;;;22.10;72.60;;;;;;5030761;28;20057;-56
2023/02/16 12:50:23;;;;;;;47.20;39.05;;;22.10;72.60;;;;;;5030677;28;20035;-55
2023/02/16 12:53:03;;;;;;;49.80;38.22;;;21.70;72.40;;;;;;5132809;28;20114;-56
2023/02/16 12:55:41;;;;;;;50.47;39.03;;;21.70;73.90;;;;;;5132979;28;20069;-56
2023/02/16 12:58:07;;;;;;;51.97;37.70;;;22.00;73.00;;;;;;5133582;27;20122;-56
2023/02/16 13:00:47;;;;;;;50.10;37.33;;;21.90;73.60;;;;;;5132347;28;20498;-56
2023/02/16 13:03:38;;;;;;;56.42;40.40;;;22.10;73.80;;;;;;5133709;27;20118;-56
2023/02/16 13:06:12;;;;;;;45.58;36.33;;;22.20;74.10;;;;;;5133506;27;20098;-56
2023/02/16 13:09:16;;;;;;;47.55;36.70;;;21.60;73.50;;;;;;5133436;27;20824;-55
2023/02/16 13:12:20;;;;;;;44.25;35.42;;;21.50;75.00;;;;;;5049764;28;20071;-56
2023/02/16 13:14:55;;;;;;;47.95;34.78;;;21.60;74.60;;;;;;4923298;28;20062;-56
2023/02/16 13:17:35;;;;;;;44.22;35.33;;;21.70;74.50;;;;;;4971603;28;20117;-56
2023/02/16 13:20:01;;;;;;;43.42;32.05;;;21.50;75.20;;;;;;4971377;28;20047;-56
2023/02/16 13:22:35;;;;;;;39.53;32.58;;;21.10;75.30;;;;;;4973701;28;20081;-56
2023/02/16 13:25:41;;;;;;;45.42;33.03;;;20.90;76.10;;;;;;4975033;28;20129;-54
2023/02/16 13:28:36;;;;;;;41.15;32.17;;;20.80;76.50;;;;;;4975003;28;20454;-54
2023/02/16 13:31:16;;;;;;;38.25;30.42;;;20.70;76.00;;;;;;4954852;28;20051;-54
2023/02/16 13:34:01;;;;;;;36.75;28.85;;;;;;;;;;4974366;28;20128;-55
2023/02/16 13:37:11;;;;;;;32.45;27.58;;;21.10;80.20;;;;;;4973849;28;20712;-54
2023/02/16 13:40:15;;;;;;;32.63;27.13;;;20.60;74.70;;;;;;4913488;29;20044;-52
2023/02/16 13:43:07;;;;;;;34.63;28.63;;;20.90;75.60;;;;;;4908113;29;20040;-54
2023/02/16 13:45:39;;;;;;;38.78;31.63;;;20.70;75.50;;;;;;4909379;29;20153;-50
2023/02/16 13:48:14;;;;;;;40.75;31.45;;;21.10;76.30;;;;;;4935125;28;20057;-54
2023/02/16 13:50:40;;;;;;;36.97;27.33;;;21.20;76.50;;;;;;4997236;28;20039;-59